createdAt,value
2018-06-16T00:00:06.057Z,100328.17
2018-06-16T00:02:35.671Z,100328.37
2018-06-16T00:05:05.476Z,100333.48
2018-06-16T00:07:35.177Z,100331.05
2018-06-16T00:10:04.999Z,100334.33
2018-06-16T00:12:34.663Z,100335.69
2018-06-16T00:15:04.532Z,100332.75
2018-06-16T00:17:34.230Z,100328.84
2018-06-16T00:20:03.901Z,100336.41
2018-06-16T00:22:33.610Z,100335.08
2018-06-16T00:25:03.460Z,100337.07
2018-06-16T00:27:33.089Z,100331.72
2018-06-16T00:30:02.814Z,100324.84
2018-06-16T00:32:32.550Z,100337.46
2018-06-16T00:35:02.289Z,100336.39
2018-06-16T00:37:31.861Z,100330.28
2018-06-16T00:40:02.448Z,100327.33
2018-06-16T00:42:32.037Z,100319.66
2018-06-16T00:45:01.748Z,100319.92
2018-06-16T00:47:31.403Z,100315.70
2018-06-16T00:50:01.190Z,100320.91
2018-06-16T00:52:30.788Z,100315.66
2018-06-16T00:55:00.466Z,100318.41
2018-06-16T00:57:48.718Z,100315.80
2018-06-16T01:00:19.245Z,100311.42
2018-06-16T01:02:49.420Z,100305.91
2018-06-16T01:05:19.067Z,100303.25
2018-06-16T01:07:48.746Z,100308.45
2018-06-16T01:10:18.395Z,100307.31
2018-06-16T01:12:48.171Z,100310.10
2018-06-16T01:15:17.803Z,100307.41
2018-06-16T01:17:47.412Z,100308.84
2018-06-16T01:20:17.089Z,100307.73
2018-06-16T01:22:46.700Z,100301.56
2018-06-16T01:25:16.326Z,100300.25
2018-06-16T01:27:45.991Z,100300.16
2018-06-16T01:30:15.656Z,100303.77
2018-06-16T01:32:45.390Z,100301.86
2018-06-16T01:35:14.971Z,100304.55
2018-06-16T01:37:44.711Z,100304.58
2018-06-16T01:40:14.443Z,100302.13
2018-06-16T01:42:44.185Z,100297.59
2018-06-16T01:45:13.761Z,100300.52
2018-06-16T01:47:43.420Z,100303.77
2018-06-16T01:50:13.033Z,100301.89
2018-06-16T01:52:42.688Z,100298.42
2018-06-16T01:55:12.296Z,100297.84
2018-06-16T01:57:42.119Z,100297.25
2018-06-16T02:00:11.811Z,100300.78
2018-06-16T02:02:41.528Z,100305.09
2018-06-16T02:05:11.262Z,100300.48
2018-06-16T02:07:40.978Z,100297.53
2018-06-16T02:10:10.750Z,100302.05
2018-06-16T02:12:40.391Z,100300.45
2018-06-16T02:15:10.298Z,100302.10
2018-06-16T02:17:39.906Z,100299.67
2018-06-16T02:20:09.517Z,100295.91
2018-06-16T02:22:39.152Z,100294.58
2018-06-16T02:25:08.957Z,100299.44
2018-06-16T02:27:38.668Z,100291.09
2018-06-16T02:30:08.304Z,100291.09
2018-06-16T02:32:37.681Z,100291.91
2018-06-16T02:35:07.367Z,100296.42
2018-06-16T02:37:36.974Z,100297.44
2018-06-16T02:40:06.601Z,100300.67
2018-06-16T02:42:36.169Z,100303.61
2018-06-16T02:45:06.164Z,100299.78
2018-06-16T02:47:35.735Z,100294.36
2018-06-16T02:50:05.447Z,100295.44
2018-06-16T02:52:35.316Z,100299.69
2018-06-16T02:55:04.972Z,100288.67
2018-06-16T02:57:34.545Z,100292.17
2018-06-16T03:00:04.225Z,100291.87
2018-06-16T03:02:33.456Z,100292.38
2018-06-16T03:05:03.058Z,100296.95
2018-06-16T03:07:32.708Z,100292.92
2018-06-16T03:10:02.335Z,100289.95
2018-06-16T03:12:32.026Z,100283.77
2018-06-16T03:15:01.745Z,100288.34
2018-06-16T03:17:31.357Z,100285.72
2018-06-16T03:20:01.048Z,100286.45
2018-06-16T03:22:30.654Z,100282.45
2018-06-16T03:25:00.277Z,100284.87
2018-06-16T03:27:30.013Z,100277.87
2018-06-16T03:29:59.788Z,100283.30
2018-06-16T03:32:29.328Z,100278.47
2018-06-16T03:34:58.957Z,100275.54
2018-06-16T03:37:28.609Z,100284.43
2018-06-16T03:39:58.232Z,100285.56
2018-06-16T03:42:27.846Z,100285.83
2018-06-16T03:44:58.258Z,100282.89
2018-06-16T03:47:28.176Z,100281.79
2018-06-16T03:49:57.872Z,100284.78
2018-06-16T03:52:27.523Z,100281.01
2018-06-16T03:54:57.183Z,100288.88
2018-06-16T03:57:26.988Z,100280.55
2018-06-16T03:59:56.633Z,100282.14
2018-06-16T04:02:26.309Z,100282.66
2018-06-16T04:04:56.050Z,100282.38
2018-06-16T04:07:25.992Z,100273.28
2018-06-16T04:09:55.940Z,100268.42
2018-06-16T04:12:25.615Z,100274.89
2018-06-16T04:14:55.197Z,100267.35
2018-06-16T04:17:24.805Z,100265.77
2018-06-16T04:19:54.471Z,100266.84
2018-06-16T04:22:24.125Z,100269.27
2018-06-16T04:24:53.777Z,100264.95
2018-06-16T04:27:23.133Z,100267.13
2018-06-16T04:29:52.813Z,100267.71
2018-06-16T04:32:22.584Z,100273.91
2018-06-16T04:34:52.233Z,100270.44
2018-06-16T04:37:21.828Z,100276.10
2018-06-16T04:39:51.510Z,100273.16
2018-06-16T04:42:27.113Z,100277.51
2018-06-16T04:44:56.777Z,100279.62
2018-06-16T04:47:26.436Z,100276.41
2018-06-16T04:49:56.117Z,100275.09
2018-06-16T04:52:25.653Z,100269.70
2018-06-16T04:54:55.297Z,100274.56
2018-06-16T04:57:24.913Z,100279.70
2018-06-16T04:59:54.512Z,100270.26
2018-06-16T05:02:24.105Z,100267.84
2018-06-16T05:04:53.766Z,100269.42
2018-06-16T05:07:23.586Z,100267.04
2018-06-16T05:09:53.257Z,100264.06
2018-06-16T05:12:22.562Z,100267.30
2018-06-16T05:14:52.235Z,100269.78
2018-06-16T05:17:21.956Z,100271.95
2018-06-16T05:19:51.561Z,100268.94
2018-06-16T05:22:21.208Z,100263.02
2018-06-16T05:24:51.580Z,100274.66
2018-06-16T05:27:21.199Z,100268.14
2018-06-16T05:29:57.544Z,100267.09
2018-06-16T05:32:27.131Z,100261.93
2018-06-16T05:34:56.825Z,100269.41
2018-06-16T05:37:27.272Z,100267.48
2018-06-16T05:39:57.616Z,100266.27
2018-06-16T05:42:27.390Z,100268.99
2018-06-16T05:44:57.818Z,100261.92
2018-06-16T05:47:27.700Z,100268.26
2018-06-16T05:49:57.399Z,100270.54
2018-06-16T05:52:27.280Z,100264.56
2018-06-16T05:54:57.439Z,100258.96
2018-06-16T05:57:27.942Z,100264.43
2018-06-16T05:59:57.787Z,100269.92
2018-06-16T06:02:27.443Z,100269.70
2018-06-16T06:04:57.260Z,100273.27
2018-06-16T06:07:27.755Z,100274.20
2018-06-16T06:09:57.771Z,100274.23
2018-06-16T06:12:27.401Z,100275.88
2018-06-16T06:14:57.013Z,100281.31
2018-06-16T06:17:26.672Z,100279.58
2018-06-16T06:19:56.276Z,100280.63
2018-06-16T06:22:25.887Z,100284.87
2018-06-16T06:24:55.634Z,100286.38
2018-06-16T06:27:25.235Z,100279.08
2018-06-16T06:29:54.951Z,100283.16
2018-06-16T06:32:24.558Z,100285.05
2018-06-16T06:34:54.211Z,100281.20
2018-06-16T06:37:24.177Z,100283.03
2018-06-16T06:39:53.963Z,100282.31
2018-06-16T06:42:23.583Z,100284.08
2018-06-16T06:44:53.526Z,100288.94
2018-06-16T06:47:23.198Z,100281.59
2018-06-16T06:49:52.916Z,100282.09
2018-06-16T06:52:22.684Z,100293.28
2018-06-16T06:54:52.771Z,100286.05
2018-06-16T06:57:22.655Z,100281.80
2018-06-16T06:59:52.683Z,100285.30
2018-06-16T07:02:22.551Z,100288.13
2018-06-16T07:04:52.276Z,100294.69
2018-06-16T07:07:22.423Z,100289.25
2018-06-16T07:09:52.135Z,100294.06
2018-06-16T07:12:21.717Z,100293.88
2018-06-16T07:14:51.362Z,100288.78
2018-06-16T07:17:21.020Z,100294.13
2018-06-16T07:19:50.600Z,100301.61
2018-06-16T07:22:20.344Z,100293.32
2018-06-16T07:24:49.985Z,100301.15
2018-06-16T07:27:19.815Z,100299.13
2018-06-16T07:29:49.574Z,100301.20
2018-06-16T07:32:19.260Z,100297.63
2018-06-16T07:34:48.919Z,100298.41
2018-06-16T07:37:18.617Z,100298.62
2018-06-16T07:39:48.456Z,100301.64
2018-06-16T07:42:18.187Z,100304.13
2018-06-16T07:44:47.812Z,100302.81
2018-06-16T07:47:17.530Z,100310.02
2018-06-16T07:49:47.181Z,100305.00
2018-06-16T07:52:17.751Z,100300.76
2018-06-16T07:54:47.596Z,100315.45
2018-06-16T07:57:17.676Z,100304.57
2018-06-16T07:59:47.715Z,100308.89
2018-06-16T08:02:17.388Z,100308.86
2018-06-16T08:04:47.367Z,100306.56
2018-06-16T08:07:16.952Z,100315.05
2018-06-16T08:09:46.779Z,100318.14
2018-06-16T08:12:16.366Z,100305.83
2018-06-16T08:14:45.867Z,100308.50
2018-06-16T08:17:16.095Z,100308.95
2018-06-16T08:19:45.766Z,100304.66
2018-06-16T08:22:15.576Z,100313.35
2018-06-16T08:24:45.574Z,100313.70
2018-06-16T08:27:15.166Z,100305.83
2018-06-16T08:29:44.685Z,100305.56
2018-06-16T08:32:14.402Z,100307.59
2018-06-16T08:34:43.987Z,100301.67
2018-06-16T08:37:13.637Z,100297.17
2018-06-16T08:39:43.291Z,100298.03
2018-06-16T08:42:13.122Z,100297.22
2018-06-16T08:44:42.780Z,100298.88
2018-06-16T08:47:12.554Z,100301.67
2018-06-16T08:49:42.351Z,100295.70
2018-06-16T08:52:12.224Z,100296.27
2018-06-16T08:54:41.886Z,100298.77
2018-06-16T08:57:11.585Z,100295.65
2018-06-16T08:59:41.237Z,100288.86
2018-06-16T09:02:11.081Z,100284.48
2018-06-16T09:04:40.936Z,100284.88
2018-06-16T09:07:11.061Z,100290.59
2018-06-16T09:09:40.924Z,100285.25
2018-06-16T09:12:10.636Z,100289.95
2018-06-16T09:14:40.331Z,100285.66
2018-06-16T09:17:10.144Z,100289.59
2018-06-16T09:19:39.873Z,100285.30
2018-06-16T09:22:09.689Z,100286.81
2018-06-16T09:24:39.452Z,100283.53
2018-06-16T09:27:09.064Z,100290.75
2018-06-16T09:29:38.806Z,100289.72
2018-06-16T09:32:08.463Z,100286.48
2018-06-16T09:34:38.431Z,100293.03
2018-06-16T09:37:08.274Z,100287.00
2018-06-16T09:39:38.129Z,100283.43
2018-06-16T09:42:08.203Z,100283.50
2018-06-16T09:44:38.183Z,100289.63
2018-06-16T09:47:08.200Z,100284.60
2018-06-16T09:49:46.503Z,100293.33
2018-06-16T09:52:16.523Z,100286.84
2018-06-16T09:54:46.160Z,100291.53
2018-06-16T09:57:15.725Z,100287.99
2018-06-16T09:59:45.358Z,100283.22
2018-06-16T10:02:14.934Z,100282.36
2018-06-16T10:04:44.562Z,100282.54
2018-06-16T10:07:14.193Z,100279.70
2018-06-16T10:09:43.804Z,100281.88
2018-06-16T10:12:13.468Z,100281.70
2018-06-16T10:14:43.155Z,100277.17
2018-06-16T10:17:12.981Z,100276.46
2018-06-16T10:19:42.715Z,100277.30
2018-06-16T10:22:12.591Z,100275.67
2018-06-16T10:24:42.326Z,100273.07
2018-06-16T10:27:12.201Z,100270.87
2018-06-16T10:29:42.236Z,100271.02
2018-06-16T10:32:12.275Z,100267.16
2018-06-16T10:34:43.322Z,100269.23
2018-06-16T10:37:12.970Z,100266.50
2018-06-16T10:39:42.610Z,100269.56
2018-06-16T10:42:12.428Z,100268.38
2018-06-16T10:44:42.092Z,100264.89
2018-06-16T10:47:11.818Z,100270.40
2018-06-16T10:49:41.407Z,100269.51
2018-06-16T10:52:11.136Z,100270.92
2018-06-16T10:54:41.344Z,100267.37
2018-06-16T10:57:10.996Z,100260.44
2018-06-16T10:59:40.970Z,100263.23
2018-06-16T11:02:10.549Z,100262.21
2018-06-16T11:04:40.095Z,100263.89
2018-06-16T11:07:09.712Z,100258.90
2018-06-16T11:09:39.358Z,100250.93
2018-06-16T11:12:09.009Z,100254.89
2018-06-16T11:14:38.731Z,100249.84
2018-06-16T11:17:08.433Z,100257.58
2018-06-16T11:19:38.100Z,100245.28
2018-06-16T11:22:07.774Z,100246.00
2018-06-16T11:24:37.520Z,100251.94
2018-06-16T11:27:07.320Z,100251.59
2018-06-16T11:29:37.012Z,100254.64
2018-06-16T11:32:06.956Z,100244.08
2018-06-16T11:34:36.830Z,100249.05
2018-06-16T11:37:06.476Z,100244.87
2018-06-16T11:39:36.240Z,100239.50
2018-06-16T11:42:05.888Z,100238.62
2018-06-16T11:44:35.638Z,100233.11
2018-06-16T11:47:06.403Z,100228.83
2018-06-16T11:49:36.011Z,100231.22
2018-06-16T11:52:05.705Z,100230.53
2018-06-16T11:54:35.425Z,100233.95
2018-06-16T11:57:05.148Z,100233.70
2018-06-16T11:59:34.796Z,100232.58
2018-06-16T12:02:04.789Z,100233.19
2018-06-16T12:04:34.415Z,100224.70
2018-06-16T12:07:04.592Z,100231.26
2018-06-16T12:09:34.379Z,100225.64
2018-06-16T12:12:04.562Z,100221.98
2018-06-16T12:14:34.231Z,100228.06
2018-06-16T12:17:04.126Z,100229.59
2018-06-16T12:19:33.797Z,100224.63
2018-06-16T12:22:03.733Z,100221.96
2018-06-16T12:24:33.414Z,100224.84
2018-06-16T12:27:03.232Z,100221.39
2018-06-16T12:29:32.891Z,100220.03
2018-06-16T12:32:02.865Z,100225.15
2018-06-16T12:34:32.618Z,100217.00
2018-06-16T12:37:02.426Z,100206.88
2018-06-16T12:39:32.032Z,100206.02
2018-06-16T12:42:01.719Z,100210.23
2018-06-16T12:44:31.371Z,100196.05
2018-06-16T12:47:00.976Z,100199.00
2018-06-16T12:49:30.777Z,100196.44
2018-06-16T12:52:00.538Z,100198.39
2018-06-16T12:54:30.186Z,100198.66
2018-06-16T12:57:00.104Z,100190.20
2018-06-16T12:59:29.972Z,100189.92
2018-06-16T13:01:59.625Z,100193.53
2018-06-16T13:04:29.447Z,100191.72
2018-06-16T13:06:59.208Z,100194.31
2018-06-16T13:09:28.982Z,100198.84
2018-06-16T13:11:58.614Z,100197.14
2018-06-16T13:14:28.349Z,100196.72
2018-06-16T13:16:58.004Z,100195.73
2018-06-16T13:19:27.636Z,100188.73
2018-06-16T13:21:57.323Z,100189.69
2018-06-16T13:24:26.952Z,100195.89
2018-06-16T13:26:59.621Z,100194.81
2018-06-16T13:29:29.359Z,100194.64
2018-06-16T13:31:58.914Z,100185.66
2018-06-16T13:34:28.539Z,100185.00
2018-06-16T13:36:58.126Z,100181.14
2018-06-16T13:39:27.744Z,100183.17
2018-06-16T13:41:57.422Z,100189.20
2018-06-16T13:44:27.184Z,100181.92
2018-06-16T13:46:56.994Z,100184.83
2018-06-16T13:49:26.644Z,100183.99
2018-06-16T13:51:56.260Z,100180.68
2018-06-16T13:54:25.913Z,100177.99
2018-06-16T13:56:55.494Z,100171.88
2018-06-16T13:59:25.610Z,100170.33
2018-06-16T14:01:55.255Z,100165.54
2018-06-16T14:04:24.833Z,100168.69
2018-06-16T14:06:54.499Z,100168.27
2018-06-16T14:09:24.508Z,100174.28
2018-06-16T14:11:54.229Z,100172.35
2018-06-16T14:14:23.977Z,100168.67
2018-06-16T14:16:53.708Z,100167.68
2018-06-16T14:19:23.382Z,100171.16
2018-06-16T14:21:53.218Z,100161.54
2018-06-16T14:24:22.903Z,100165.84
2018-06-16T14:26:52.596Z,100169.64
2018-06-16T14:29:22.356Z,100166.44
2018-06-16T14:31:52.284Z,100158.44
2018-06-16T14:34:22.166Z,100167.58
2018-06-16T14:36:51.816Z,100156.21
2018-06-16T14:39:21.870Z,100164.42
2018-06-16T14:41:51.570Z,100158.20
2018-06-16T14:44:21.216Z,100158.52
2018-06-16T14:46:50.878Z,100154.99
2018-06-16T14:49:20.535Z,100155.55
2018-06-16T14:51:50.184Z,100154.39
2018-06-16T14:54:19.820Z,100165.16
2018-06-16T14:56:49.565Z,100160.77
2018-06-16T14:59:19.318Z,100160.33
2018-06-16T15:01:48.944Z,100155.09
2018-06-16T15:04:18.914Z,100154.06
2018-06-16T15:06:48.732Z,100143.02
2018-06-16T15:09:18.732Z,100151.09
2018-06-16T15:11:48.597Z,100143.02
2018-06-16T15:14:18.891Z,100136.06
2018-06-16T15:16:48.535Z,100148.98
2018-06-16T15:19:18.683Z,100149.14
2018-06-16T15:21:48.333Z,100142.23
2018-06-16T15:24:18.359Z,100138.42
2018-06-16T15:26:48.043Z,100135.08
2018-06-16T15:29:17.826Z,100131.47
2018-06-16T15:31:47.402Z,100138.01
2018-06-16T15:34:17.496Z,100122.66
2018-06-16T15:49:47.297Z,100101.14
2018-06-16T15:52:16.896Z,100093.18
2018-06-16T15:54:46.649Z,100093.40
2018-06-16T15:57:16.409Z,100085.20
2018-06-16T15:59:46.272Z,100083.61
2018-06-16T16:02:16.198Z,100081.40
2018-06-16T16:04:45.837Z,100077.64
2018-06-16T16:07:15.481Z,100085.52
2018-06-16T16:09:45.137Z,100079.80
2018-06-16T16:12:14.809Z,100073.79
2018-06-16T16:14:44.433Z,100071.56
2018-06-16T16:17:14.155Z,100078.53
2018-06-16T16:19:43.754Z,100072.14
2018-06-16T16:22:13.595Z,100069.28
2018-06-16T16:24:43.281Z,100073.91
2018-06-16T16:27:12.847Z,100071.80
2018-06-16T16:29:42.501Z,100069.78
2018-06-16T16:32:12.125Z,100068.86
2018-06-16T16:34:41.376Z,100075.23
2018-06-16T16:37:11.019Z,100072.52
2018-06-16T16:39:40.567Z,100068.36
2018-06-16T16:42:10.227Z,100068.41
2018-06-16T16:44:39.932Z,100067.81
2018-06-16T16:47:09.566Z,100073.30
2018-06-16T16:49:40.273Z,100071.05
2018-06-16T16:52:09.936Z,100074.03
2018-06-16T16:54:39.541Z,100070.98
2018-06-16T16:57:09.587Z,100065.72
2018-06-16T16:59:39.760Z,100073.00
2018-06-16T17:02:09.361Z,100075.16
2018-06-16T17:04:38.969Z,100071.91
2018-06-16T17:07:08.565Z,100082.61
2018-06-16T17:09:40.466Z,100078.81
2018-06-16T17:12:10.188Z,100076.07
2018-06-16T17:14:39.827Z,100075.16
2018-06-16T17:17:09.581Z,100080.41
2018-06-16T17:19:39.260Z,100084.12
2018-06-16T17:22:08.963Z,100085.48
2018-06-16T17:24:38.667Z,100085.21
2018-06-16T17:27:08.374Z,100086.25
2018-06-16T17:29:37.996Z,100079.04
2018-06-16T17:32:07.652Z,100081.82
2018-06-16T17:34:37.324Z,100078.66
2018-06-16T17:37:07.133Z,100083.06
2018-06-16T17:39:36.928Z,100085.45
2018-06-16T17:42:09.865Z,100084.20
2018-06-16T17:44:39.533Z,100085.77
2018-06-16T17:47:09.293Z,100080.81
2018-06-16T17:49:39.046Z,100091.89
2018-06-16T17:52:08.767Z,100080.23
2018-06-16T17:54:38.421Z,100082.56
2018-06-16T17:57:08.097Z,100089.45
2018-06-16T17:59:37.706Z,100085.73
2018-06-16T18:02:07.491Z,100079.04
2018-06-16T18:04:37.315Z,100078.55
2018-06-16T18:07:07.141Z,100074.41
2018-06-16T18:09:37.492Z,100070.44
2018-06-16T18:12:07.304Z,100075.56
2018-06-16T18:14:36.998Z,100077.05
2018-06-16T18:17:06.863Z,100074.11
2018-06-16T18:19:36.462Z,100071.16
2018-06-16T18:22:06.256Z,100069.34
2018-06-16T18:24:35.902Z,100067.59
2018-06-16T18:27:05.725Z,100068.78
2018-06-16T18:29:35.488Z,100076.06
2018-06-16T18:32:05.544Z,100068.05
2018-06-16T18:34:36.391Z,100069.62
2018-06-16T18:37:06.289Z,100073.57
2018-06-16T18:39:36.971Z,100073.05
2018-06-16T18:42:06.783Z,100069.13
2018-06-16T18:44:36.555Z,100077.15
2018-06-16T18:47:06.428Z,100077.27
2018-06-16T18:49:36.633Z,100068.86
2018-06-16T18:52:06.309Z,100070.05
2018-06-16T18:54:36.413Z,100069.78
2018-06-16T18:57:06.881Z,100073.47
2018-06-16T18:59:38.178Z,100068.94
2018-06-16T19:02:09.237Z,100065.45
2018-06-16T19:04:39.793Z,100064.96
2018-06-16T19:07:09.497Z,100067.95
2018-06-16T19:09:40.803Z,100069.19
2018-06-16T19:12:11.797Z,100069.01
2018-06-16T19:14:41.495Z,100071.50
2018-06-16T19:17:11.166Z,100083.06
2018-06-16T19:19:40.730Z,100080.05
2018-06-16T19:22:10.483Z,100083.13
2018-06-16T19:24:40.221Z,100087.47
2018-06-16T19:27:09.918Z,100085.64
2018-06-16T19:29:39.661Z,100094.43
2018-06-16T19:32:09.296Z,100097.70
2018-06-16T19:34:39.181Z,100109.65
2018-06-16T19:37:08.817Z,100124.16
2018-06-16T19:39:38.778Z,100127.41
2018-06-16T19:42:08.600Z,100145.41
2018-06-16T19:44:38.609Z,100174.86
2018-06-16T19:47:08.410Z,100183.55
2018-06-16T19:49:38.345Z,100203.39
2018-06-16T19:52:08.273Z,100198.50
2018-06-16T19:54:37.972Z,100215.78
2018-06-16T19:57:07.651Z,100218.80
2018-06-16T19:59:37.368Z,100218.52
2018-06-16T20:02:07.638Z,100220.37
2018-06-16T20:04:37.185Z,100216.25
2018-06-16T20:07:06.826Z,100208.58
2018-06-16T20:09:36.477Z,100208.46
2018-06-16T20:12:06.117Z,100207.91
2018-06-16T20:14:35.764Z,100203.64
2018-06-16T20:17:05.403Z,100212.40
2018-06-16T20:19:35.083Z,100205.16
2018-06-16T20:22:04.833Z,100206.48
2018-06-16T20:24:34.593Z,100201.91
2018-06-16T20:27:04.333Z,100205.10
2018-06-16T20:29:34.075Z,100201.88
2018-06-16T20:32:03.698Z,100196.25
2018-06-16T20:34:33.245Z,100188.14
2018-06-16T20:37:02.773Z,100185.97
2018-06-16T20:39:32.411Z,100175.14
2018-06-16T20:42:02.056Z,100178.91
2018-06-16T20:44:31.803Z,100183.72
2018-06-16T20:47:01.455Z,100186.58
2018-06-16T20:49:31.085Z,100185.40
2018-06-16T20:52:00.722Z,100188.63
2018-06-16T20:54:30.372Z,100190.98
2018-06-16T20:57:00.021Z,100189.94
2018-06-16T20:59:29.783Z,100184.80
2018-06-16T21:01:59.436Z,100183.78
2018-06-16T21:04:29.015Z,100186.77
2018-06-16T21:06:58.643Z,100191.86
2018-06-16T21:09:28.283Z,100193.23
2018-06-16T21:11:57.936Z,100201.06
2018-06-16T21:14:27.579Z,100210.72
2018-06-16T21:16:57.260Z,100215.87
2018-06-16T21:19:26.636Z,100217.93
2018-06-16T21:21:56.255Z,100211.27
2018-06-16T21:24:25.898Z,100223.61
2018-06-16T21:26:55.536Z,100229.50
2018-06-16T21:29:25.121Z,100223.58
2018-06-16T21:31:54.831Z,100229.20
2018-06-16T21:34:24.588Z,100218.40
2018-06-16T21:36:54.247Z,100218.79
2018-06-16T21:39:23.957Z,100218.98
2018-06-16T21:41:53.596Z,100216.87
2018-06-16T21:44:23.237Z,100218.17
2018-06-16T21:46:53.600Z,100207.57
2018-06-16T21:49:23.245Z,100216.80
2018-06-16T21:51:52.839Z,100214.88
2018-06-16T21:54:22.567Z,100226.78
2018-06-16T21:56:52.211Z,100229.16
2018-06-16T21:59:21.824Z,100229.39
2018-06-16T22:01:51.766Z,100227.73
2018-06-16T22:04:21.447Z,100234.14
2018-06-16T22:06:51.613Z,100231.67
2018-06-16T22:09:21.310Z,100231.45
2018-06-16T22:11:51.420Z,100245.25
2018-06-16T22:14:20.993Z,100242.20
2018-06-16T22:16:50.976Z,100227.65
2018-06-16T22:19:20.800Z,100226.83
2018-06-16T22:21:50.966Z,100236.78
2018-06-16T22:24:20.503Z,100248.76
2018-06-16T22:26:50.730Z,100248.26
2018-06-16T22:29:20.336Z,100249.52
2018-06-16T22:31:49.954Z,100247.31
2018-06-16T22:34:19.575Z,100254.03
2018-06-16T22:36:50.261Z,100264.59
2018-06-16T22:39:20.474Z,100260.67
2018-06-16T22:41:50.105Z,100255.36
2018-06-16T22:44:19.795Z,100257.83
2018-06-16T22:46:49.454Z,100248.52
2018-06-16T22:49:18.956Z,100237.76
2018-06-16T22:51:48.600Z,100243.09
2018-06-16T22:54:18.223Z,100240.77
2018-06-16T22:56:47.921Z,100241.59
2018-06-16T22:59:17.605Z,100236.44
2018-06-16T23:01:47.751Z,100244.88
2018-06-16T23:04:17.316Z,100241.70
2018-06-16T23:06:47.160Z,100237.02
2018-06-16T23:09:16.793Z,100237.20
2018-06-16T23:11:46.475Z,100234.33
2018-06-16T23:14:16.106Z,100240.68
2018-06-16T23:16:45.823Z,100247.13
2018-06-16T23:19:15.440Z,100245.95
2018-06-16T23:21:45.116Z,100253.30
2018-06-16T23:24:14.776Z,100245.55
2018-06-16T23:26:44.402Z,100255.77
2018-06-16T23:29:14.143Z,100253.16
2018-06-16T23:31:43.795Z,100254.92
2018-06-16T23:34:13.428Z,100257.48
2018-06-16T23:36:43.073Z,100255.94
2018-06-16T23:39:13.642Z,100252.12
2018-06-16T23:41:43.202Z,100248.58
2018-06-16T23:44:12.828Z,100247.06
2018-06-16T23:46:42.410Z,100250.84
2018-06-16T23:49:12.018Z,100250.08
2018-06-16T23:51:41.710Z,100254.00
2018-06-16T23:54:11.308Z,100246.80
2018-06-16T23:56:41.019Z,100248.84
2018-06-16T23:59:10.641Z,100250.17
